Time;durP1;ratioP1;P1;durP2;ratioP2;P2;SDS_P1;SDS_P2;PMS_P1;PMS_P2;Temp;Humidity;BMP_temperature;BMP_pressure;BME280_temperature;BME280_humidity;BME280_pressure;Samples;Min_cycle;Max_cycle;Signal;HPM_P1;HPM_P2
2021/03/15 00:01:09;;;;;;;1.77;1.23;;;5.40;92.30;;;;;;5028398;28;20038;-52
2021/03/15 00:03:36;;;;;;;2.53;1.40;;;5.30;92.30;;;;;;5028530;28;20097;-54
2021/03/15 00:06:03;;;;;;;3.72;1.50;;;5.40;92.40;;;;;;5012765;28;20410;-54
2021/03/15 00:08:29;;;;;;;4.75;1.50;;;5.40;92.50;;;;;;5029326;28;20033;-53
2021/03/15 00:10:56;;;;;;;3.33;1.38;;;5.40;92.40;;;;;;5030534;28;20055;-55
2021/03/15 00:13:22;;;;;;;2.95;1.70;;;5.40;92.40;;;;;;5027759;28;20033;-53
2021/03/15 00:15:50;;;;;;;2.47;1.40;;;5.40;92.40;;;;;;5030796;28;20044;-54
2021/03/15 00:18:17;;;;;;;3.83;1.70;;;5.40;92.50;;;;;;5020636;28;20395;-54
2021/03/15 00:20:43;;;;;;;4.72;1.70;;;5.40;92.60;;;;;;5008325;28;20060;-54
2021/03/15 00:23:09;;;;;;;5.22;1.85;;;5.40;92.50;;;;;;5025238;28;20224;-55
2021/03/15 00:25:35;;;;;;;7.35;1.92;;;5.40;92.50;;;;;;5024539;28;20121;-51
2021/03/15 00:28:01;;;;;;;5.72;1.85;;;5.40;92.60;;;;;;5029486;28;20048;-56
2021/03/15 00:30:27;;;;;;;5.80;1.60;;;5.40;92.60;;;;;;5023633;28;20422;-54
2021/03/15 00:32:53;;;;;;;5.07;1.75;;;5.40;92.60;;;;;;5027894;28;20403;-55
2021/03/15 00:35:21;;;;;;;5.75;1.83;;;5.50;92.70;;;;;;5029718;28;20119;-55
2021/03/15 00:37:48;;;;;;;3.45;1.88;;;5.40;92.60;;;;;;5011078;28;20049;-51
2021/03/15 00:40:17;;;;;;;6.07;2.08;;;5.50;92.70;;;;;;5030093;28;20100;-54
2021/03/15 00:42:44;;;;;;;4.25;1.83;;;5.50;92.60;;;;;;5025232;28;20057;-56
2021/03/15 00:45:12;;;;;;;4.47;1.95;;;5.50;92.60;;;;;;5013129;28;20046;-56
2021/03/15 00:47:38;;;;;;;5.15;2.13;;;5.50;92.60;;;;;;5026306;28;20539;-56
2021/03/15 00:50:07;;;;;;;4.25;1.95;;;5.60;92.90;;;;;;5006802;28;20068;-56
2021/03/15 00:52:33;;;;;;;6.07;2.17;;;5.50;92.60;;;;;;5024837;28;20103;-55
2021/03/15 00:54:59;;;;;;;5.00;2.10;;;5.60;92.60;;;;;;5023083;28;20049;-52
2021/03/15 00:57:25;;;;;;;5.25;2.28;;;5.60;92.60;;;;;;5011982;28;20045;-55
2021/03/15 00:59:50;;;;;;;3.95;2.13;;;5.60;92.60;;;;;;5028482;28;20038;-55
2021/03/15 01:02:16;;;;;;;4.72;2.08;;;5.60;92.60;;;;;;5023356;28;20037;-55
2021/03/15 01:04:42;;;;;;;4.20;2.17;;;5.60;92.60;;;;;;5026109;28;20125;-50
2021/03/15 01:07:10;;;;;;;6.30;2.13;;;5.60;92.60;;;;;;5022618;28;20038;-53
2021/03/15 01:09:39;;;;;;;4.70;2.13;;;5.60;92.50;;;;;;5028464;28;20048;-52
2021/03/15 01:12:06;;;;;;;5.07;2.40;;;5.60;92.50;;;;;;5026306;28;20531;-56
2021/03/15 01:14:35;;;;;;;4.65;2.20;;;5.60;92.50;;;;;;5020758;28;20048;-57
2021/03/15 01:17:01;;;;;;;4.43;2.42;;;5.60;92.60;;;;;;5011134;28;20460;-54
2021/03/15 01:19:27;;;;;;;4.45;2.15;;;5.60;92.60;;;;;;5004771;28;20048;-56
2021/03/15 01:21:54;;;;;;;5.38;2.00;;;5.60;92.50;;;;;;5024083;28;20042;-56
2021/03/15 01:24:20;;;;;;;4.20;2.10;;;5.60;92.60;;;;;;5027067;28;20038;-55
2021/03/15 01:26:46;;;;;;;5.22;2.20;;;5.60;92.60;;;;;;5026968;28;20055;-54
2021/03/15 01:29:11;;;;;;;4.53;2.10;;;5.60;92.60;;;;;;5030242;28;20041;-55
2021/03/15 01:31:39;;;;;;;4.43;2.13;;;5.70;92.60;;;;;;5021642;28;20438;-55
2021/03/15 01:34:07;;;;;;;5.38;2.33;;;5.60;92.50;;;;;;5030499;28;20349;-52
2021/03/15 01:36:34;;;;;;;4.68;2.60;;;5.60;92.50;;;;;;5035455;28;20037;-56
2021/03/15 01:39:00;;;;;;;5.90;2.35;;;5.60;92.50;;;;;;5034201;28;20041;-56
2021/03/15 01:41:26;;;;;;;5.57;2.40;;;5.60;92.60;;;;;;5026633;28;20132;-56
2021/03/15 01:43:52;;;;;;;4.70;2.35;;;5.60;92.70;;;;;;5029977;28;20099;-56
2021/03/15 01:46:19;;;;;;;6.20;2.35;;;5.50;92.60;;;;;;5031771;28;20135;-56
2021/03/15 01:48:46;;;;;;;4.10;2.13;;;5.40;92.60;;;;;;5027859;28;20037;-56
2021/03/15 01:51:12;;;;;;;5.20;2.42;;;5.50;92.60;;;;;;5035832;28;20045;-56
2021/03/15 01:53:38;;;;;;;5.40;2.50;;;5.40;92.60;;;;;;5022772;28;20045;-54
2021/03/15 01:56:04;;;;;;;5.85;2.95;;;5.40;92.70;;;;;;5023522;28;20038;-55
2021/03/15 01:58:30;;;;;;;5.00;2.38;;;5.40;92.70;;;;;;5025187;28;20042;-55
2021/03/15 02:00:56;;;;;;;5.82;2.53;;;5.40;92.70;;;;;;5013815;28;20049;-56
2021/03/15 02:03:21;;;;;;;7.65;2.53;;;5.40;92.80;;;;;;5024009;28;20402;-55
2021/03/15 02:05:47;;;;;;;4.60;2.63;;;5.40;92.80;;;;;;5027436;28;20140;-54
2021/03/15 02:08:13;;;;;;;4.78;2.50;;;5.40;92.70;;;;;;5032710;28;20464;-54
2021/03/15 02:10:39;;;;;;;4.38;2.65;;;5.40;92.80;;;;;;5040651;28;20038;-52
2021/03/15 02:13:36;;;;;;;6.63;2.50;;;5.40;92.80;;;;;;5036218;28;20413;-55
2021/03/15 02:16:10;;;;;;;6.32;2.53;;;5.40;92.70;;;;;;5025805;28;20120;-54
2021/03/15 02:19:16;;;;;;;6.93;2.53;;;5.40;92.70;;;;;;5025051;28;20080;-55
2021/03/15 02:22:14;;;;;;;7.72;2.97;;;5.40;92.70;;;;;;5020278;28;20410;-56
2021/03/15 02:25:10;;;;;;;5.03;2.50;;;5.30;92.70;;;;;;5020783;28;20486;-56
2021/03/15 02:27:55;;;;;;;6.53;2.53;;;5.40;92.90;;;;;;5022593;28;20107;-56
2021/03/15 02:30:26;;;;;;;7.60;2.72;;;5.30;92.80;;;;;;5028393;28;20034;-56
2021/03/15 02:33:30;;;;;;;6.43;2.75;;;5.30;92.80;;;;;;5024222;28;20116;-55
2021/03/15 02:35:57;;;;;;;8.00;2.83;;;5.30;92.90;;;;;;5021310;28;20049;-57
2021/03/15 02:38:25;;;;;;;6.13;2.75;;;5.30;92.80;;;;;;5025325;28;20037;-56
2021/03/15 02:40:57;;;;;;;6.68;2.63;;;5.30;92.80;;;;;;5020257;28;20041;-56
2021/03/15 02:43:45;;;;;;;6.87;2.63;;;5.30;92.80;;;;;;5021922;28;20045;-55
2021/03/15 02:46:20;;;;;;;8.23;2.80;;;5.30;92.80;;;;;;5022298;28;20095;-55
2021/03/15 02:48:49;;;;;;;6.72;3.03;;;5.30;92.90;;;;;;5031785;28;20045;-55
2021/03/15 02:51:17;;;;;;;7.50;2.85;;;5.40;93.00;;;;;;5033235;28;20037;-56
2021/03/15 02:53:44;;;;;;;5.18;3.03;;;5.30;93.10;;;;;;5014752;28;20128;-53
2021/03/15 02:56:21;;;;;;;6.75;3.00;;;5.30;93.00;;;;;;5033728;28;20081;-56
2021/03/15 02:58:50;;;;;;;7.40;2.85;;;5.40;93.00;;;;;;5031880;28;20115;-54
2021/03/15 03:01:21;;;;;;;5.10;2.67;;;5.40;93.10;;;;;;5027004;28;20068;-53
2021/03/15 03:03:52;;;;;;;6.75;3.30;;;5.40;93.00;;;;;;5029079;28;20517;-52
2021/03/15 03:06:21;;;;;;;8.05;3.35;;;5.50;92.90;;;;;;5029606;28;20046;-54
2021/03/15 03:08:51;;;;;;;7.60;3.10;;;5.50;92.90;;;;;;5025556;28;20068;-55
2021/03/15 03:11:19;;;;;;;7.57;3.22;;;5.50;92.90;;;;;;5025575;28;20045;-55
2021/03/15 03:13:51;;;;;;;7.13;2.80;;;5.60;92.90;;;;;;5029228;28;20048;-54
2021/03/15 03:16:20;;;;;;;8.93;3.50;;;5.50;92.80;;;;;;5032623;28;20117;-52
2021/03/15 03:18:49;;;;;;;8.60;3.63;;;5.60;92.90;;;;;;5018701;28;20104;-53
2021/03/15 03:21:20;;;;;;;6.20;3.15;;;5.60;92.90;;;;;;5013491;28;20042;-52
2021/03/15 03:23:50;;;;;;;8.30;3.50;;;5.60;92.80;;;;;;5012864;28;20037;-53
2021/03/15 03:26:17;;;;;;;8.07;3.45;;;5.60;92.90;;;;;;5026176;28;20045;-51
2021/03/15 03:28:45;;;;;;;8.43;3.55;;;5.60;93.00;;;;;;5025549;28;20054;-54
2021/03/15 03:31:12;;;;;;;9.10;3.65;;;5.50;92.90;;;;;;5030300;28;20037;-53
2021/03/15 03:33:38;;;;;;;8.18;3.70;;;5.50;92.80;;;;;;5028207;28;20045;-53
2021/03/15 03:36:04;;;;;;;8.48;3.70;;;5.50;92.80;;;;;;5029095;28;20118;-52
2021/03/15 03:38:30;;;;;;;6.15;3.35;;;5.40;92.80;;;;;;5019118;28;20038;-57
2021/03/15 03:40:57;;;;;;;11.65;4.15;;;5.40;92.80;;;;;;5038330;28;20121;-54
2021/03/15 03:43:23;;;;;;;7.60;3.58;;;5.30;92.80;;;;;;5014405;28;20045;-55
2021/03/15 03:45:50;;;;;;;10.35;3.67;;;5.30;92.80;;;;;;5019055;28;20045;-55
2021/03/15 03:48:17;;;;;;;10.38;3.88;;;5.20;92.80;;;;;;4979949;28;20074;-55
2021/03/15 03:50:43;;;;;;;8.15;3.33;;;5.10;92.70;;;;;;5024732;28;20080;-53
2021/03/15 03:53:16;;;;;;;11.18;4.25;;;5.10;92.80;;;;;;5031501;28;20049;-54
2021/03/15 03:56:00;;;;;;;9.63;4.05;;;5.20;92.80;;;;;;5028785;28;20056;-54
2021/03/15 03:58:31;;;;;;;15.43;4.70;;;5.20;92.90;;;;;;5030608;28;20589;-55
2021/03/15 04:00:58;;;;;;;13.68;5.05;;;5.20;92.90;;;;;;5027638;28;20107;-56
2021/03/15 04:03:26;;;;;;;13.65;5.32;;;5.20;93.30;;;;;;5012636;28;20033;-55
2021/03/15 04:05:57;;;;;;;18.65;5.32;;;5.20;93.00;;;;;;5010618;28;20049;-55
2021/03/15 04:08:30;;;;;;;17.70;5.38;;;5.30;93.20;;;;;;5021967;28;20049;-55
2021/03/15 04:10:57;;;;;;;16.15;6.25;;;5.40;93.10;;;;;;5025663;28;20509;-56
2021/03/15 04:13:26;;;;;;;22.50;6.45;;;5.40;93.10;;;;;;5019475;28;20108;-56
2021/03/15 04:15:51;;;;;;;23.52;5.95;;;5.40;93.20;;;;;;5029604;28;20049;-54
2021/03/15 04:18:22;;;;;;;18.08;5.65;;;5.50;93.20;;;;;;5018347;28;20067;-54
2021/03/15 04:20:56;;;;;;;17.50;6.05;;;5.50;93.10;;;;;;5001254;28;20037;-54
2021/03/15 04:23:33;;;;;;;17.85;5.25;;;5.40;93.00;;;;;;5011956;28;20088;-55
2021/03/15 04:26:00;;;;;;;19.45;6.32;;;5.50;93.10;;;;;;5004825;28;20060;-52
2021/03/15 04:28:28;;;;;;;18.48;6.90;;;5.40;93.00;;;;;;5012288;28;20038;-50
2021/03/15 04:30:56;;;;;;;17.50;6.43;;;5.50;93.20;;;;;;5017361;28;20410;-51
2021/03/15 04:33:23;;;;;;;16.35;6.03;;;5.40;93.20;;;;;;5011552;28;20099;-51
2021/03/15 04:35:51;;;;;;;20.52;6.53;;;5.40;93.20;;;;;;5022202;28;20054;-52
2021/03/15 04:38:17;;;;;;;15.77;5.95;;;5.40;93.20;;;;;;5012101;28;20156;-56
2021/03/15 04:40:48;;;;;;;17.05;5.38;;;5.40;93.20;;;;;;5029181;28;20049;-55
2021/03/15 04:43:16;;;;;;;22.58;5.53;;;5.40;93.10;;;;;;5022061;28;20048;-55
2021/03/15 04:45:45;;;;;;;17.85;5.50;;;5.40;93.10;;;;;;5017065;28;20038;-56
2021/03/15 04:48:29;;;;;;;20.95;5.30;;;5.30;93.10;;;;;;5029187;28;20159;-56
2021/03/15 04:50:59;;;;;;;21.98;5.60;;;5.30;93.00;;;;;;5014637;28;20172;-56
2021/03/15 04:53:27;;;;;;;15.73;4.97;;;5.30;93.00;;;;;;5012826;28;20045;-56
2021/03/15 04:55:58;;;;;;;17.38;5.40;;;5.30;93.00;;;;;;4996613;28;20055;-56
2021/03/15 04:58:25;;;;;;;15.07;4.70;;;5.20;93.00;;;;;;5015309;28;20095;-56
2021/03/15 05:00:56;;;;;;;14.63;4.68;;;5.20;92.90;;;;;;5016546;28;20046;-56
2021/03/15 05:03:24;;;;;;;15.23;4.70;;;5.20;92.90;;;;;;5014535;28;20034;-56
2021/03/15 05:05:52;;;;;;;15.23;5.10;;;5.10;92.90;;;;;;5030269;28;20129;-56
2021/03/15 05:08:22;;;;;;;17.38;5.00;;;5.10;92.90;;;;;;5023912;28;20405;-55
2021/03/15 05:10:48;;;;;;;14.63;4.75;;;5.10;92.90;;;;;;5013913;28;20042;-56
2021/03/15 05:13:16;;;;;;;13.27;4.47;;;5.20;93.10;;;;;;5021484;28;20034;-54
2021/03/15 05:15:43;;;;;;;21.15;4.53;;;5.20;93.00;;;;;;5001226;28;20057;-56
2021/03/15 05:18:12;;;;;;;20.02;4.55;;;5.20;92.90;;;;;;5026236;28;20042;-56
2021/03/15 05:20:38;;;;;;;25.42;4.80;;;5.20;92.90;;;;;;5019191;28;20533;-55
2021/03/15 05:23:07;;;;;;;15.73;4.53;;;5.20;92.90;;;;;;5013772;28;20041;-55
2021/03/15 05:25:34;;;;;;;15.60;4.22;;;5.20;92.90;;;;;;5027109;28;20049;-56
2021/03/15 05:28:01;;;;;;;15.68;4.57;;;5.20;92.90;;;;;;5014835;28;20119;-55
2021/03/15 05:30:29;;;;;;;11.45;4.40;;;5.20;92.90;;;;;;5023102;28;20038;-55
2021/03/15 05:32:55;;;;;;;14.32;4.40;;;5.20;92.80;;;;;;5013822;28;20046;-56
2021/03/15 05:35:24;;;;;;;17.85;3.97;;;5.10;92.80;;;;;;5012944;28;20042;-56
2021/03/15 05:37:50;;;;;;;17.83;4.30;;;5.10;92.80;;;;;;5024252;28;20045;-56
2021/03/15 05:40:21;;;;;;;24.13;4.72;;;5.10;92.80;;;;;;5020865;28;20041;-56
2021/03/15 05:43:00;;;;;;;14.63;3.70;;;5.10;92.80;;;;;;5039237;28;20437;-56
2021/03/15 05:45:41;;;;;;;20.63;4.28;;;5.00;92.90;;;;;;5016990;28;20509;-56
2021/03/15 05:48:17;;;;;;;16.08;4.03;;;5.10;92.90;;;;;;5019100;28;20041;-56
2021/03/15 05:51:11;;;;;;;14.77;4.10;;;5.00;92.80;;;;;;5021458;28;20041;-55
2021/03/15 05:53:55;;;;;;;15.98;3.65;;;5.00;92.80;;;;;;5023731;28;20045;-54
2021/03/15 05:56:45;;;;;;;19.38;4.30;;;5.00;92.90;;;;;;5023593;28;20061;-56
2021/03/15 05:59:35;;;;;;;20.00;3.75;;;5.00;92.90;;;;;;5027344;28;20091;-56
2021/03/15 06:02:27;;;;;;;22.65;4.13;;;5.00;92.90;;;;;;5030404;28;20566;-56
2021/03/15 06:05:12;;;;;;;16.90;3.63;;;4.90;92.90;;;;;;5021030;28;20114;-56
2021/03/15 06:07:42;;;;;;;22.63;3.97;;;4.90;93.00;;;;;;5024089;28;20080;-56
2021/03/15 06:10:10;;;;;;;20.17;5.43;;;4.90;93.00;;;;;;5026781;28;20048;-56
2021/03/15 06:13:01;;;;;;;19.08;3.80;;;4.90;93.00;;;;;;5029870;28;20124;-56
2021/03/15 06:15:37;;;;;;;17.80;3.47;;;4.90;93.10;;;;;;5013944;28;20050;-56
2021/03/15 06:18:04;;;;;;;29.13;4.75;;;5.00;93.10;;;;;;5020891;28;20132;-56
2021/03/15 06:20:33;;;;;;;19.40;3.63;;;5.00;93.30;;;;;;5025179;28;20065;-57
2021/03/15 06:23:03;;;;;;;20.58;3.80;;;5.00;93.20;;;;;;4991277;28;20038;-57
2021/03/15 06:25:29;;;;;;;17.58;3.67;;;5.00;93.20;;;;;;5022166;28;20041;-56
2021/03/15 06:27:56;;;;;;;16.38;3.67;;;5.00;93.20;;;;;;5026904;28;20406;-57
2021/03/15 06:30:23;;;;;;;20.45;2.92;;;5.10;93.20;;;;;;5029698;28;20033;-57
2021/03/15 06:32:55;;;;;;;21.25;3.33;;;5.10;93.20;;;;;;5032357;28;20069;-57
2021/03/15 06:35:24;;;;;;;16.60;3.00;;;5.10;93.10;;;;;;5026818;28;20073;-57
2021/03/15 06:37:50;;;;;;;21.33;3.88;;;5.10;93.20;;;;;;5028714;28;20464;-57
2021/03/15 06:40:18;;;;;;;17.60;3.58;;;5.20;93.20;;;;;;5029462;28;20589;-55
2021/03/15 06:42:45;;;;;;;29.05;3.50;;;5.20;93.20;;;;;;5032650;28;20045;-56
2021/03/15 06:45:15;;;;;;;19.23;3.22;;;5.30;93.20;;;;;;5031925;28;20034;-57
2021/03/15 06:47:41;;;;;;;26.30;3.47;;;5.30;93.10;;;;;;5026048;28;20069;-57
2021/03/15 06:50:10;;;;;;;21.55;3.20;;;5.30;93.00;;;;;;5030431;28;20132;-56
2021/03/15 06:52:54;;;;;;;23.05;3.55;;;5.30;93.00;;;;;;5017135;28;20110;-56
2021/03/15 06:55:25;;;;;;;18.45;3.65;;;5.30;92.90;;;;;;5022179;28;20049;-56
2021/03/15 06:57:52;;;;;;;19.88;2.72;;;5.30;93.00;;;;;;5020968;28;20048;-56
2021/03/15 07:00:26;;;;;;;22.20;3.03;;;5.40;93.00;;;;;;5020856;28;20120;-55
2021/03/15 07:02:59;;;;;;;27.45;3.78;;;5.40;92.90;;;;;;5017516;28;20037;-56
2021/03/15 07:05:25;;;;;;;16.98;2.90;;;5.50;92.90;;;;;;5031805;28;20421;-56
2021/03/15 07:07:53;;;;;;;18.02;3.20;;;5.50;92.80;;;;;;5023462;28;20034;-56
2021/03/15 07:10:19;;;;;;;19.70;3.42;;;5.60;92.80;;;;;;5015215;28;20110;-55
2021/03/15 07:12:46;;;;;;;18.17;3.72;;;5.60;92.70;;;;;;5007262;28;20034;-56
2021/03/15 07:15:12;;;;;;;23.65;3.50;;;5.70;92.60;;;;;;5024194;28;20049;-55
2021/03/15 07:17:38;;;;;;;21.85;3.50;;;5.70;92.60;;;;;;5026133;28;20043;-54
2021/03/15 07:20:05;;;;;;;25.52;3.47;;;5.70;92.50;;;;;;5020441;28;20125;-51
2021/03/15 07:22:31;;;;;;;25.35;3.55;;;5.70;92.40;;;;;;5026471;28;20050;-54
2021/03/15 07:25:15;;;;;;;21.40;3.45;;;5.80;92.40;;;;;;5021827;28;20057;-55
2021/03/15 07:27:43;;;;;;;24.88;4.00;;;5.80;92.40;;;;;;5030351;28;20037;-55
2021/03/15 07:30:28;;;;;;;26.73;4.07;;;5.90;92.40;;;;;;5027922;28;20030;-54
2021/03/15 07:32:57;;;;;;;19.23;2.85;;;5.90;92.40;;;;;;5030250;28;20037;-54
2021/03/15 07:35:29;;;;;;;17.90;2.85;;;5.90;92.40;;;;;;5024138;28;20577;-52
2021/03/15 07:37:55;;;;;;;18.95;3.05;;;6.00;92.20;;;;;;5027498;28;20128;-54
2021/03/15 07:40:31;;;;;;;19.35;4.10;;;6.00;92.20;;;;;;5027972;28;20061;-54
2021/03/15 07:43:02;;;;;;;30.38;3.65;;;6.00;92.10;;;;;;5029679;28;20042;-54
2021/03/15 07:45:36;;;;;;;22.00;3.78;;;6.10;92.00;;;;;;5023773;28;20049;-54
2021/03/15 07:48:06;;;;;;;19.85;2.95;;;6.20;91.90;;;;;;5015316;28;20430;-54
2021/03/15 07:50:33;;;;;;;27.13;3.30;;;6.10;92.00;;;;;;4998933;28;20414;-53
2021/03/15 07:52:58;;;;;;;25.42;3.33;;;6.20;92.00;;;;;;5016552;28;20041;-52
2021/03/15 07:55:36;;;;;;;26.15;3.55;;;6.30;92.10;;;;;;5013357;28;20048;-54
2021/03/15 07:58:03;;;;;;;22.40;3.35;;;6.30;91.80;;;;;;5016566;28;20041;-54
2021/03/15 08:00:29;;;;;;;27.05;3.50;;;6.40;91.80;;;;;;5019875;28;20041;-54
2021/03/15 08:02:56;;;;;;;20.80;3.67;;;6.50;91.70;;;;;;5023694;28;20440;-51
2021/03/15 08:05:22;;;;;;;26.83;3.53;;;6.60;91.70;;;;;;5023125;28;20096;-51
2021/03/15 08:07:48;;;;;;;23.92;3.92;;;6.60;91.40;;;;;;5020644;28;20486;-54
2021/03/15 08:10:14;;;;;;;16.25;2.88;;;6.70;91.20;;;;;;5022810;28;20483;-54
2021/03/15 08:12:43;;;;;;;19.15;3.15;;;6.70;91.00;;;;;;5027440;28;20494;-52
2021/03/15 08:15:13;;;;;;;17.73;3.10;;;6.80;90.50;;;;;;5022599;28;20104;-54
2021/03/15 08:17:43;;;;;;;14.27;2.90;;;6.80;90.00;;;;;;5018318;28;20084;-54
2021/03/15 08:20:09;;;;;;;20.83;3.28;;;6.90;90.10;;;;;;5023753;28;20329;-54
2021/03/15 08:22:43;;;;;;;23.70;2.95;;;6.80;90.00;;;;;;5007941;28;20042;-52
2021/03/15 08:25:10;;;;;;;21.55;2.78;;;6.90;90.20;;;;;;5010128;28;20052;-54
2021/03/15 08:27:40;;;;;;;22.48;3.53;;;6.90;89.60;;;;;;5019777;28;20509;-50
2021/03/15 08:30:13;;;;;;;20.27;2.92;;;7.00;89.40;;;;;;5019141;28;20089;-53
2021/03/15 08:32:40;;;;;;;15.35;2.65;;;7.00;89.30;;;;;;5026446;28;20498;-53
2021/03/15 08:35:07;;;;;;;21.23;3.05;;;7.00;89.50;;;;;;5021509;28;20033;-51
2021/03/15 08:37:53;;;;;;;18.33;2.60;;;7.00;89.70;;;;;;5025595;28;20041;-53
2021/03/15 08:40:41;;;;;;;15.75;2.78;;;7.00;89.50;;;;;;5042069;28;20064;-54
2021/03/15 08:43:18;;;;;;;18.75;2.88;;;7.00;89.60;;;;;;5034674;28;20289;-53
2021/03/15 08:45:48;;;;;;;24.55;3.40;;;7.00;89.90;;;;;;5016448;28;20080;-53
2021/03/15 08:48:14;;;;;;;21.08;3.17;;;7.00;89.20;;;;;;5030142;28;20041;-51
2021/03/15 08:50:45;;;;;;;23.17;3.05;;;7.00;89.40;;;;;;5029244;28;20549;-52
2021/03/15 08:53:11;;;;;;;27.58;3.60;;;7.00;89.60;;;;;;5030397;28;20053;-52
2021/03/15 08:55:48;;;;;;;16.63;2.78;;;7.10;89.80;;;;;;5026765;28;20064;-50
2021/03/15 08:58:41;;;;;;;24.77;3.55;;;7.00;89.90;;;;;;5029061;28;20523;-54
2021/03/15 09:01:17;;;;;;;19.00;2.97;;;7.00;89.90;;;;;;5027876;28;20052;-53
2021/03/15 09:03:50;;;;;;;23.98;3.90;;;7.00;89.50;;;;;;5026644;28;20128;-53
2021/03/15 09:06:36;;;;;;;;;;;7.00;90.00;;;;;;5026475;28;20444;-53
2021/03/15 09:09:10;;;;;;;21.80;3.50;;;7.00;90.10;;;;;;5014632;28;20007;-54
2021/03/15 09:11:41;;;;;;;20.42;3.03;;;6.90;90.20;;;;;;5030774;28;20048;-52
2021/03/15 09:14:16;;;;;;;15.57;3.47;;;6.90;90.40;;;;;;5030845;28;20045;-55
2021/03/15 09:16:45;;;;;;;16.77;3.30;;;6.90;90.60;;;;;;5029432;28;20042;-54
2021/03/15 09:19:20;;;;;;;18.88;3.00;;;7.00;91.10;;;;;;5030606;28;20049;-55
2021/03/15 09:22:01;;;;;;;13.57;3.55;;;7.00;90.50;;;;;;5028002;28;20051;-52
2021/03/15 09:24:38;;;;;;;19.23;3.65;;;7.00;90.30;;;;;;5017978;28;20049;-52
2021/03/15 09:27:36;;;;;;;28.67;3.80;;;7.00;90.40;;;;;;5023337;28;20797;-53
2021/03/15 09:30:19;;;;;;;21.20;3.35;;;7.00;90.30;;;;;;5029678;28;20041;-54
2021/03/15 09:32:53;;;;;;;21.40;3.35;;;7.00;90.30;;;;;;5026372;28;20128;-54
2021/03/15 09:35:33;;;;;;;23.85;3.30;;;7.10;90.20;;;;;;5025135;28;20064;-55
2021/03/15 09:38:07;;;;;;;19.27;3.75;;;7.20;90.00;;;;;;5024801;28;20465;-54
2021/03/15 09:40:39;;;;;;;18.95;3.42;;;7.20;90.10;;;;;;5017145;28;20180;-54
2021/03/15 09:43:06;;;;;;;17.00;3.83;;;7.30;89.70;;;;;;5035955;28;20053;-51
2021/03/15 09:45:35;;;;;;;22.70;3.55;;;7.40;89.30;;;;;;5023740;28;20124;-53
2021/03/15 09:48:03;;;;;;;22.40;3.88;;;7.50;89.60;;;;;;5031841;28;20167;-55
2021/03/15 09:50:31;;;;;;;23.40;3.40;;;7.60;88.40;;;;;;5032738;28;20623;-51
2021/03/15 09:53:09;;;;;;;17.50;3.08;;;7.70;88.50;;;;;;5021970;28;20033;-53
2021/03/15 09:55:34;;;;;;;21.25;3.25;;;7.80;87.70;;;;;;5026442;28;20064;-55
2021/03/15 09:58:08;;;;;;;13.30;2.67;;;7.80;86.50;;;;;;5033187;28;20049;-55
2021/03/15 10:00:35;;;;;;;17.23;2.92;;;7.70;85.70;;;;;;5032450;28;20544;-52
2021/03/15 10:03:02;;;;;;;16.13;2.58;;;7.70;86.00;;;;;;5034838;28;20037;-55
2021/03/15 10:05:28;;;;;;;16.40;2.35;;;7.80;85.70;;;;;;5033809;28;20454;-54
2021/03/15 10:07:54;;;;;;;15.45;3.92;;;7.80;85.60;;;;;;5032452;28;20068;-53
2021/03/15 10:10:23;;;;;;;20.23;3.75;;;7.70;85.90;;;;;;5034049;28;20045;-54
2021/03/15 10:12:50;;;;;;;21.40;3.00;;;7.60;86.10;;;;;;5032811;28;20514;-55
2021/03/15 10:15:17;;;;;;;19.08;2.90;;;7.60;86.40;;;;;;5033621;28;20045;-53
2021/03/15 10:17:44;;;;;;;22.73;3.22;;;7.60;87.10;;;;;;4997710;28;20049;-55
2021/03/15 10:20:20;;;;;;;19.70;3.22;;;7.60;87.30;;;;;;5028787;28;20045;-54
2021/03/15 10:22:46;;;;;;;17.02;2.55;;;7.70;86.50;;;;;;5026449;28;20414;-55
2021/03/15 10:25:14;;;;;;;14.20;2.60;;;7.70;86.70;;;;;;5029045;28;20418;-54
2021/03/15 10:27:50;;;;;;;16.83;2.53;;;7.70;85.30;;;;;;5025459;28;20041;-54
2021/03/15 10:30:16;;;;;;;10.73;2.45;;;7.80;83.80;;;;;;5029919;28;20098;-55
2021/03/15 10:32:42;;;;;;;13.40;2.40;;;7.90;84.00;;;;;;5031537;28;20033;-55
2021/03/15 10:35:08;;;;;;;17.45;3.10;;;8.00;83.20;;;;;;5029592;28;20045;-54
2021/03/15 10:37:38;;;;;;;20.67;3.45;;;8.00;84.00;;;;;;5032832;28;20098;-55
2021/03/15 10:40:07;;;;;;;17.85;3.05;;;8.00;84.40;;;;;;5031720;28;20425;-54
2021/03/15 10:42:36;;;;;;;17.75;3.78;;;8.00;84.90;;;;;;5031435;28;20045;-54
2021/03/15 10:45:10;;;;;;;14.68;2.88;;;8.10;85.60;;;;;;5028782;28;20049;-54
2021/03/15 10:47:38;;;;;;;25.13;3.13;;;8.20;85.10;;;;;;5029204;28;20511;-55
2021/03/15 10:50:28;;;;;;;15.75;2.95;;;8.20;85.50;;;;;;5026475;28;20099;-55
2021/03/15 10:52:56;;;;;;;17.08;3.15;;;8.30;85.60;;;;;;5023701;28;20114;-54
2021/03/15 10:55:32;;;;;;;15.55;3.10;;;8.30;85.40;;;;;;5031421;28;20501;-53
2021/03/15 10:57:59;;;;;;;14.35;2.22;;;8.30;85.90;;;;;;5027644;28;20048;-55
2021/03/15 11:00:28;;;;;;;19.48;3.40;;;8.20;85.70;;;;;;5029043;28;20107;-52
2021/03/15 11:02:54;;;;;;;17.77;3.22;;;8.20;86.30;;;;;;5030855;28;20148;-55
2021/03/15 11:05:20;;;;;;;25.10;4.30;;;8.20;87.50;;;;;;5030878;28;20033;-51
2021/03/15 11:07:46;;;;;;;17.85;3.10;;;8.20;87.90;;;;;;5029039;28;20104;-55
2021/03/15 11:10:45;;;;;;;19.08;3.10;;;8.20;88.00;;;;;;5015317;28;20046;-53
2021/03/15 11:13:17;;;;;;;17.13;3.22;;;8.20;88.40;;;;;;4997703;28;20041;-54
2021/03/15 11:15:42;;;;;;;18.52;3.85;;;8.20;87.10;;;;;;5027494;28;20045;-53
2021/03/15 11:18:22;;;;;;;21.95;3.63;;;8.30;86.40;;;;;;5020402;28;20128;-53
2021/03/15 11:20:50;;;;;;;20.55;3.13;;;8.30;86.60;;;;;;5028433;28;20422;-55
2021/03/15 11:23:30;;;;;;;15.43;2.92;;;8.60;86.70;;;;;;5027598;28;20047;-54
2021/03/15 11:26:05;;;;;;;17.73;3.42;;;8.70;85.20;;;;;;5027690;28;20279;-55
2021/03/15 11:28:33;;;;;;;26.08;3.72;;;8.80;84.10;;;;;;5029500;28;20044;-53
2021/03/15 11:31:00;;;;;;;21.85;3.47;;;8.60;83.00;;;;;;5028013;28;20422;-55
2021/03/15 11:33:28;;;;;;;21.40;3.35;;;8.60;83.40;;;;;;5030934;28;20038;-55
2021/03/15 11:35:54;;;;;;;22.40;3.78;;;8.40;84.00;;;;;;5030771;28;20048;-54
2021/03/15 11:38:24;;;;;;;20.85;2.97;;;8.30;85.00;;;;;;5031884;28;20120;-54
2021/03/15 11:40:51;;;;;;;22.88;2.65;;;8.30;83.20;;;;;;5031374;28;20080;-55
2021/03/15 11:43:17;;;;;;;11.52;2.47;;;8.40;83.60;;;;;;5019309;28;20113;-55
2021/03/15 11:45:47;;;;;;;22.83;3.13;;;8.60;82.00;;;;;;5012013;28;20041;-55
2021/03/15 11:48:13;;;;;;;13.18;2.60;;;8.70;78.90;;;;;;5031471;28;20079;-54
2021/03/15 11:50:39;;;;;;;15.20;2.92;;;8.90;80.50;;;;;;5031313;28;20049;-53
2021/03/15 11:53:06;;;;;;;16.33;3.08;;;8.80;78.50;;;;;;5008594;28;20038;-55
2021/03/15 11:55:35;;;;;;;11.52;2.63;;;8.90;77.10;;;;;;5024949;28;20041;-54
2021/03/15 11:58:00;;;;;;;15.88;2.70;;;8.90;77.20;;;;;;5022023;28;20045;-54
2021/03/15 12:00:27;;;;;;;19.10;2.97;;;9.00;75.50;;;;;;5025873;28;20104;-55
2021/03/15 12:02:53;;;;;;;15.05;2.45;;;9.00;76.10;;;;;;5026132;28;20073;-55
2021/03/15 12:05:20;;;;;;;12.93;2.72;;;9.00;76.10;;;;;;5023066;28;20037;-55
2021/03/15 12:07:46;;;;;;;17.65;4.53;;;9.00;76.40;;;;;;5030890;28;20029;-53
2021/03/15 12:10:13;;;;;;;16.98;2.88;;;9.00;76.20;;;;;;5027823;28;20084;-55
2021/03/15 12:12:40;;;;;;;13.90;2.45;;;9.00;73.50;;;;;;5019351;28;20065;-55
2021/03/15 12:15:13;;;;;;;13.27;2.85;;;9.00;74.60;;;;;;5029233;28;20044;-54
2021/03/15 12:17:40;;;;;;;20.10;3.55;;;9.20;74.40;;;;;;5028378;28;20092;-53
2021/03/15 12:20:07;;;;;;;19.92;3.13;;;9.20;73.30;;;;;;5027704;28;20156;-50
2021/03/15 12:22:33;;;;;;;18.77;2.85;;;9.10;73.60;;;;;;5024750;28;20558;-54
2021/03/15 12:24:59;;;;;;;15.02;2.45;;;9.10;74.30;;;;;;5011766;28;20057;-52
2021/03/15 12:27:26;;;;;;;12.65;2.60;;;9.20;71.90;;;;;;5016762;28;20038;-51
2021/03/15 12:29:52;;;;;;;14.63;2.38;;;9.30;71.80;;;;;;5020835;28;20038;-54
2021/03/15 12:32:18;;;;;;;12.85;2.40;;;9.40;72.30;;;;;;5019705;28;20042;-53
2021/03/15 12:34:44;;;;;;;14.00;2.13;;;9.60;71.90;;;;;;5016911;28;20065;-54
2021/03/15 12:37:10;;;;;;;12.65;2.08;;;9.60;71.00;;;;;;5022669;28;20486;-52
2021/03/15 12:39:35;;;;;;;20.65;4.22;;;9.60;71.20;;;;;;5008411;28;20042;-53
2021/03/15 12:42:02;;;;;;;8.25;2.15;;;9.60;71.60;;;;;;5022072;28;20427;-54
2021/03/15 12:44:28;;;;;;;14.60;2.85;;;9.60;71.20;;;;;;5015142;28;20056;-52
2021/03/15 12:46:54;;;;;;;11.68;2.00;;;9.70;72.50;;;;;;5029256;28;20037;-53
2021/03/15 12:49:20;;;;;;;17.23;2.38;;;9.70;71.80;;;;;;5007592;28;20034;-53
2021/03/15 12:51:46;;;;;;;13.50;2.20;;;9.70;71.70;;;;;;5023590;28;20394;-54
2021/03/15 12:54:12;;;;;;;15.18;2.72;;;9.60;67.20;;;;;;5028038;28;20584;-53
2021/03/15 12:56:38;;;;;;;11.32;2.53;;;9.50;68.80;;;;;;5013037;28;20050;-54
2021/03/15 12:59:04;;;;;;;15.07;3.17;;;9.50;69.50;;;;;;5014137;28;20045;-54
2021/03/15 13:01:30;;;;;;;9.93;2.30;;;9.40;70.00;;;;;;5020546;28;20046;-52
2021/03/15 13:03:56;;;;;;;16.88;3.15;;;9.40;69.40;;;;;;5018611;28;20083;-52
2021/03/15 13:06:22;;;;;;;12.70;2.00;;;9.30;70.10;;;;;;5026284;28;20498;-52